sensor_id;sensor_type;location;lat;lon;timestamp;temperature;humidity
27823;DHT22;29019;47.630;8.262;2023-03-15T00:00:55;20.10;33.60
27823;DHT22;29019;47.630;8.262;2023-03-15T00:04:55;20.10;33.60
27823;DHT22;29019;47.630;8.262;2023-03-15T00:08:56;20.10;33.60
27823;DHT22;29019;47.630;8.262;2023-03-15T00:12:56;20.10;33.60
27823;DHT22;29019;47.630;8.262;2023-03-15T00:16:57;20.10;33.60
27823;DHT22;29019;47.630;8.262;2023-03-15T00:20:57;20.00;33.60
27823;DHT22;29019;47.630;8.262;2023-03-15T00:24:58;20.00;33.60
27823;DHT22;29019;47.630;8.262;2023-03-15T00:28:58;20.00;33.60
27823;DHT22;29019;47.630;8.262;2023-03-15T00:32:59;20.00;33.60
27823;DHT22;29019;47.630;8.262;2023-03-15T00:36:59;19.90;33.60
27823;DHT22;29019;47.630;8.262;2023-03-15T00:41:07;19.90;33.60
27823;DHT22;29019;47.630;8.262;2023-03-15T00:45:07;19.90;33.60
27823;DHT22;29019;47.630;8.262;2023-03-15T00:49:08;19.90;33.60
27823;DHT22;29019;47.630;8.262;2023-03-15T00:53:08;19.90;33.60
27823;DHT22;29019;47.630;8.262;2023-03-15T00:57:09;19.90;33.60
27823;DHT22;29019;47.630;8.262;2023-03-15T01:01:11;19.90;34.10
27823;DHT22;29019;47.630;8.262;2023-03-15T01:05:12;19.90;33.60
27823;DHT22;29019;47.630;8.262;2023-03-15T01:09:13;19.80;33.50
27823;DHT22;29019;47.630;8.262;2023-03-15T01:13:13;19.80;33.60
27823;DHT22;29019;47.630;8.262;2023-03-15T01:17:14;19.80;33.60
27823;DHT22;29019;47.630;8.262;2023-03-15T01:21:14;19.80;33.60
27823;DHT22;29019;47.630;8.262;2023-03-15T01:25:15;19.80;33.60
27823;DHT22;29019;47.630;8.262;2023-03-15T01:29:15;19.70;33.60
27823;DHT22;29019;47.630;8.262;2023-03-15T01:33:17;19.80;33.60
27823;DHT22;29019;47.630;8.262;2023-03-15T01:37:17;19.70;33.50
27823;DHT22;29019;47.630;8.262;2023-03-15T01:41:18;19.70;33.50
27823;DHT22;29019;47.630;8.262;2023-03-15T01:49:38;19.70;33.40
27823;DHT22;29019;47.630;8.262;2023-03-15T01:53:39;19.70;33.40
27823;DHT22;29019;47.630;8.262;2023-03-15T01:57:47;19.70;33.40
27823;DHT22;29019;47.630;8.262;2023-03-15T02:01:49;19.60;33.30
27823;DHT22;29019;47.630;8.262;2023-03-15T02:05:51;19.60;33.30
27823;DHT22;29019;47.630;8.262;2023-03-15T02:10:04;19.60;33.30
27823;DHT22;29019;47.630;8.262;2023-03-15T02:14:05;19.60;33.30
27823;DHT22;29019;47.630;8.262;2023-03-15T02:18:07;19.60;33.30
27823;DHT22;29019;47.630;8.262;2023-03-15T02:26:38;19.60;33.20
27823;DHT22;29019;47.630;8.262;2023-03-15T02:30:39;19.50;33.10
27823;DHT22;29019;47.630;8.262;2023-03-15T02:34:40;19.50;33.10
27823;DHT22;29019;47.630;8.262;2023-03-15T02:38:40;19.50;33.10
27823;DHT22;29019;47.630;8.262;2023-03-15T02:42:41;19.50;33.10
27823;DHT22;29019;47.630;8.262;2023-03-15T02:46:42;19.40;33.00
27823;DHT22;29019;47.630;8.262;2023-03-15T02:50:43;19.40;33.10
27823;DHT22;29019;47.630;8.262;2023-03-15T02:54:44;19.40;33.10
27823;DHT22;29019;47.630;8.262;2023-03-15T02:58:44;19.40;33.10
27823;DHT22;29019;47.630;8.262;2023-03-15T03:02:45;19.40;33.10
27823;DHT22;29019;47.630;8.262;2023-03-15T03:06:46;19.40;33.00
27823;DHT22;29019;47.630;8.262;2023-03-15T03:10:46;19.40;33.00
27823;DHT22;29019;47.630;8.262;2023-03-15T03:14:47;19.40;33.10
27823;DHT22;29019;47.630;8.262;2023-03-15T03:18:47;19.40;33.00
27823;DHT22;29019;47.630;8.262;2023-03-15T03:22:48;19.30;33.00
27823;DHT22;29019;47.630;8.262;2023-03-15T03:26:48;19.30;33.00
27823;DHT22;29019;47.630;8.262;2023-03-15T03:30:49;19.30;33.00
27823;DHT22;29019;47.630;8.262;2023-03-15T03:34:50;19.30;33.00
27823;DHT22;29019;47.630;8.262;2023-03-15T03:38:50;19.20;33.50
27823;DHT22;29019;47.630;8.262;2023-03-15T03:42:51;19.20;32.90
27823;DHT22;29019;47.630;8.262;2023-03-15T03:46:51;19.20;33.00
27823;DHT22;29019;47.630;8.262;2023-03-15T03:50:52;19.20;32.90
27823;DHT22;29019;47.630;8.262;2023-03-15T03:54:52;19.20;33.00
27823;DHT22;29019;47.630;8.262;2023-03-15T03:58:53;19.20;33.40
27823;DHT22;29019;47.630;8.262;2023-03-15T04:02:53;19.20;32.90
27823;DHT22;29019;47.630;8.262;2023-03-15T04:06:54;19.20;33.00
27823;DHT22;29019;47.630;8.262;2023-03-15T04:10:55;19.10;32.90
27823;DHT22;29019;47.630;8.262;2023-03-15T04:14:56;19.20;32.90
27823;DHT22;29019;47.630;8.262;2023-03-15T04:18:56;19.10;32.90
27823;DHT22;29019;47.630;8.262;2023-03-15T04:22:56;19.10;32.90
27823;DHT22;29019;47.630;8.262;2023-03-15T04:26:57;19.10;32.90
27823;DHT22;29019;47.630;8.262;2023-03-15T04:30:57;19.10;32.90
27823;DHT22;29019;47.630;8.262;2023-03-15T04:35:00;19.10;32.90
27823;DHT22;29019;47.630;8.262;2023-03-15T04:39:01;19.10;32.90
27823;DHT22;29019;47.630;8.262;2023-03-15T04:43:07;19.10;32.80
27823;DHT22;29019;47.630;8.262;2023-03-15T04:47:07;19.10;32.80
27823;DHT22;29019;47.630;8.262;2023-03-15T04:51:08;19.10;32.80
27823;DHT22;29019;47.630;8.262;2023-03-15T04:55:08;19.10;32.80
27823;DHT22;29019;47.630;8.262;2023-03-15T04:59:09;19.10;32.80
27823;DHT22;29019;47.630;8.262;2023-03-15T05:03:10;19.10;32.80
27823;DHT22;29019;47.630;8.262;2023-03-15T05:07:10;19.00;32.80
27823;DHT22;29019;47.630;8.262;2023-03-15T05:11:11;19.00;32.90
27823;DHT22;29019;47.630;8.262;2023-03-15T05:15:12;19.10;32.90
27823;DHT22;29019;47.630;8.262;2023-03-15T05:19:12;19.20;32.80
27823;DHT22;29019;47.630;8.262;2023-03-15T05:23:12;19.30;32.70
27823;DHT22;29019;47.630;8.262;2023-03-15T05:27:13;19.50;32.60
27823;DHT22;29019;47.630;8.262;2023-03-15T05:31:13;19.50;32.60
27823;DHT22;29019;47.630;8.262;2023-03-15T05:35:14;19.70;32.60
27823;DHT22;29019;47.630;8.262;2023-03-15T05:39:14;19.70;32.50
27823;DHT22;29019;47.630;8.262;2023-03-15T05:43:15;19.80;32.50
27823;DHT22;29019;47.630;8.262;2023-03-15T05:47:16;19.90;32.50
27823;DHT22;29019;47.630;8.262;2023-03-15T05:51:16;19.90;32.40
27823;DHT22;29019;47.630;8.262;2023-03-15T05:55:17;19.90;32.40
27823;DHT22;29019;47.630;8.262;2023-03-15T05:59:17;19.90;32.40
27823;DHT22;29019;47.630;8.262;2023-03-15T06:03:18;20.00;32.40
27823;DHT22;29019;47.630;8.262;2023-03-15T06:07:18;20.00;32.40
27823;DHT22;29019;47.630;8.262;2023-03-15T06:11:20;20.00;32.40
27823;DHT22;29019;47.630;8.262;2023-03-15T06:15:21;20.00;32.30
27823;DHT22;29019;47.630;8.262;2023-03-15T06:19:21;20.00;32.40
27823;DHT22;29019;47.630;8.262;2023-03-15T06:23:22;20.00;32.40
27823;DHT22;29019;47.630;8.262;2023-03-15T06:27:22;20.00;32.40
27823;DHT22;29019;47.630;8.262;2023-03-15T06:31:23;20.00;32.40
27823;DHT22;29019;47.630;8.262;2023-03-15T06:35:23;20.00;32.30
27823;DHT22;29019;47.630;8.262;2023-03-15T06:39:23;20.10;32.30
27823;DHT22;29019;47.630;8.262;2023-03-15T06:43:24;20.20;32.10
27823;DHT22;29019;47.630;8.262;2023-03-15T06:47:24;20.20;32.00
27823;DHT22;29019;47.630;8.262;2023-03-15T06:51:25;20.20;31.90
27823;DHT22;29019;47.630;8.262;2023-03-15T06:55:25;20.10;32.00
27823;DHT22;29019;47.630;8.262;2023-03-15T06:59:26;20.10;32.00
27823;DHT22;29019;47.630;8.262;2023-03-15T07:03:26;20.20;32.10
27823;DHT22;29019;47.630;8.262;2023-03-15T07:07:26;20.10;32.10
27823;DHT22;29019;47.630;8.262;2023-03-15T07:11:27;20.10;32.10
27823;DHT22;29019;47.630;8.262;2023-03-15T07:15:27;20.20;32.20
27823;DHT22;29019;47.630;8.262;2023-03-15T07:19:28;20.20;32.20
27823;DHT22;29019;47.630;8.262;2023-03-15T07:23:28;20.20;32.10
27823;DHT22;29019;47.630;8.262;2023-03-15T07:27:29;20.20;32.10
27823;DHT22;29019;47.630;8.262;2023-03-15T07:31:29;20.20;32.10
27823;DHT22;29019;47.630;8.262;2023-03-15T07:35:30;20.30;32.10
27823;DHT22;29019;47.630;8.262;2023-03-15T07:39:30;20.30;32.00
27823;DHT22;29019;47.630;8.262;2023-03-15T07:43:34;20.40;32.00
27823;DHT22;29019;47.630;8.262;2023-03-15T07:47:34;20.40;32.00
27823;DHT22;29019;47.630;8.262;2023-03-15T07:51:35;20.40;32.00
27823;DHT22;29019;47.630;8.262;2023-03-15T07:55:36;20.30;31.90
27823;DHT22;29019;47.630;8.262;2023-03-15T07:59:36;20.30;32.00
27823;DHT22;29019;47.630;8.262;2023-03-15T08:03:36;20.30;32.10
27823;DHT22;29019;47.630;8.262;2023-03-15T08:07:37;20.20;32.10
27823;DHT22;29019;47.630;8.262;2023-03-15T08:11:37;20.20;32.00
27823;DHT22;29019;47.630;8.262;2023-03-15T08:15:38;20.20;32.00
27823;DHT22;29019;47.630;8.262;2023-03-15T08:19:38;20.20;32.00
27823;DHT22;29019;47.630;8.262;2023-03-15T08:23:39;20.20;32.10
27823;DHT22;29019;47.630;8.262;2023-03-15T08:27:40;20.10;32.10
27823;DHT22;29019;47.630;8.262;2023-03-15T08:31:41;20.10;32.10
27823;DHT22;29019;47.630;8.262;2023-03-15T08:35:41;20.10;32.10
27823;DHT22;29019;47.630;8.262;2023-03-15T08:39:42;20.10;32.10
27823;DHT22;29019;47.630;8.262;2023-03-15T08:43:43;20.10;32.20
27823;DHT22;29019;47.630;8.262;2023-03-15T08:47:43;20.00;32.10
27823;DHT22;29019;47.630;8.262;2023-03-15T08:51:43;20.00;32.10
27823;DHT22;29019;47.630;8.262;2023-03-15T08:55:44;20.00;32.10
27823;DHT22;29019;47.630;8.262;2023-03-15T08:59:44;20.00;32.20
27823;DHT22;29019;47.630;8.262;2023-03-15T09:03:45;20.00;32.30
27823;DHT22;29019;47.630;8.262;2023-03-15T09:07:45;20.00;32.20
27823;DHT22;29019;47.630;8.262;2023-03-15T09:11:46;20.00;32.80
27823;DHT22;29019;47.630;8.262;2023-03-15T09:15:48;19.90;32.20
27823;DHT22;29019;47.630;8.262;2023-03-15T09:19:49;19.90;32.10
27823;DHT22;29019;47.630;8.262;2023-03-15T09:23:49;20.00;32.10
27823;DHT22;29019;47.630;8.262;2023-03-15T09:27:50;19.90;32.10
27823;DHT22;29019;47.630;8.262;2023-03-15T09:31:50;20.00;32.10
27823;DHT22;29019;47.630;8.262;2023-03-15T09:35:51;19.90;32.10
27823;DHT22;29019;47.630;8.262;2023-03-15T09:39:52;20.00;32.20
27823;DHT22;29019;47.630;8.262;2023-03-15T09:44:11;19.90;32.10
27823;DHT22;29019;47.630;8.262;2023-03-15T09:52:25;19.90;32.20
27823;DHT22;29019;47.630;8.262;2023-03-15T09:56:34;19.90;32.20
27823;DHT22;29019;47.630;8.262;2023-03-15T10:00:46;19.90;32.20
27823;DHT22;29019;47.630;8.262;2023-03-15T10:04:48;19.90;32.00
27823;DHT22;29019;47.630;8.262;2023-03-15T10:08:53;19.90;32.10
27823;DHT22;29019;47.630;8.262;2023-03-15T10:12:57;19.90;32.10
27823;DHT22;29019;47.630;8.262;2023-03-15T10:17:04;19.90;32.00
27823;DHT22;29019;47.630;8.262;2023-03-15T10:21:12;19.90;32.00
27823;DHT22;29019;47.630;8.262;2023-03-15T10:25:18;19.90;32.00
27823;DHT22;29019;47.630;8.262;2023-03-15T10:29:23;19.90;32.00
27823;DHT22;29019;47.630;8.262;2023-03-15T10:33:31;19.90;32.00
27823;DHT22;29019;47.630;8.262;2023-03-15T10:37:33;19.90;32.00
27823;DHT22;29019;47.630;8.262;2023-03-15T10:41:43;19.90;32.00
27823;DHT22;29019;47.630;8.262;2023-03-15T10:49:59;19.90;32.00
27823;DHT22;29019;47.630;8.262;2023-03-15T11:02:23;19.90;32.50
27823;DHT22;29019;47.630;8.262;2023-03-15T11:06:25;19.90;31.90
27823;DHT22;29019;47.630;8.262;2023-03-15T11:10:27;19.90;31.90
27823;DHT22;29019;47.630;8.262;2023-03-15T11:14:31;19.90;31.90
27823;DHT22;29019;47.630;8.262;2023-03-15T11:22:33;19.90;31.90
27823;DHT22;29019;47.630;8.262;2023-03-15T11:26:35;19.90;31.80
27823;DHT22;29019;47.630;8.262;2023-03-15T11:30:35;19.90;31.80
27823;DHT22;29019;47.630;8.262;2023-03-15T11:35:12;19.90;31.80
27823;DHT22;29019;47.630;8.262;2023-03-15T11:39:05;19.90;31.70
27823;DHT22;29019;47.630;8.262;2023-03-15T11:43:07;19.90;31.80
27823;DHT22;29019;47.630;8.262;2023-03-15T11:47:15;19.90;31.70
27823;DHT22;29019;47.630;8.262;2023-03-15T11:51:17;19.90;31.80
27823;DHT22;29019;47.630;8.262;2023-03-15T11:55:24;20.00;31.80
27823;DHT22;29019;47.630;8.262;2023-03-15T11:59:30;20.00;31.80
27823;DHT22;29019;47.630;8.262;2023-03-15T12:03:33;20.00;31.70
27823;DHT22;29019;47.630;8.262;2023-03-15T12:07:35;20.00;31.70
27823;DHT22;29019;47.630;8.262;2023-03-15T12:11:36;20.00;31.70
27823;DHT22;29019;47.630;8.262;2023-03-15T12:19:37;20.00;31.60
27823;DHT22;29019;47.630;8.262;2023-03-15T12:23:40;19.90;31.60
27823;DHT22;29019;47.630;8.262;2023-03-15T12:27:48;20.00;31.60
27823;DHT22;29019;47.630;8.262;2023-03-15T12:31:51;20.00;31.60
27823;DHT22;29019;47.630;8.262;2023-03-15T12:35:52;20.00;31.70
27823;DHT22;29019;47.630;8.262;2023-03-15T12:39:59;20.00;31.60
27823;DHT22;29019;47.630;8.262;2023-03-15T12:48:21;20.00;31.60
27823;DHT22;29019;47.630;8.262;2023-03-15T12:52:26;20.00;31.60
27823;DHT22;29019;47.630;8.262;2023-03-15T12:56:48;20.00;31.60
27823;DHT22;29019;47.630;8.262;2023-03-15T13:00:50;20.00;31.50
27823;DHT22;29019;47.630;8.262;2023-03-15T13:04:58;20.00;31.50
27823;DHT22;29019;47.630;8.262;2023-03-15T13:09:02;20.00;31.60
27823;DHT22;29019;47.630;8.262;2023-03-15T13:17:34;20.00;31.50
27823;DHT22;29019;47.630;8.262;2023-03-15T13:26:02;19.90;31.40
27823;DHT22;29019;47.630;8.262;2023-03-15T13:34:22;19.90;31.50
27823;DHT22;29019;47.630;8.262;2023-03-15T13:38:25;19.90;31.50
27823;DHT22;29019;47.630;8.262;2023-03-15T13:42:26;19.90;31.30
27823;DHT22;29019;47.630;8.262;2023-03-15T13:46:28;20.00;31.40
27823;DHT22;29019;47.630;8.262;2023-03-15T13:50:28;19.90;31.30
27823;DHT22;29019;47.630;8.262;2023-03-15T13:54:29;19.90;31.30
27823;DHT22;29019;47.630;8.262;2023-03-15T13:58:30;19.90;31.20
27823;DHT22;29019;47.630;8.262;2023-03-15T14:02:34;19.90;31.30
27823;DHT22;29019;47.630;8.262;2023-03-15T14:06:37;19.90;31.30
27823;DHT22;29019;47.630;8.262;2023-03-15T14:10:38;19.90;31.30
27823;DHT22;29019;47.630;8.262;2023-03-15T14:14:38;19.90;31.40
27823;DHT22;29019;47.630;8.262;2023-03-15T14:18:45;19.90;31.30
27823;DHT22;29019;47.630;8.262;2023-03-15T14:22:50;19.90;31.30
27823;DHT22;29019;47.630;8.262;2023-03-15T14:26:55;19.90;31.20
27823;DHT22;29019;47.630;8.262;2023-03-15T14:30:57;19.90;31.20
27823;DHT22;29019;47.630;8.262;2023-03-15T14:34:59;19.90;31.20
27823;DHT22;29019;47.630;8.262;2023-03-15T14:39:00;19.90;31.20
27823;DHT22;29019;47.630;8.262;2023-03-15T14:43:01;19.90;31.20
27823;DHT22;29019;47.630;8.262;2023-03-15T14:47:05;19.90;31.20
27823;DHT22;29019;47.630;8.262;2023-03-15T14:51:15;19.90;31.10
27823;DHT22;29019;47.630;8.262;2023-03-15T14:55:17;19.90;31.10
27823;DHT22;29019;47.630;8.262;2023-03-15T14:59:18;19.90;31.20
27823;DHT22;29019;47.630;8.262;2023-03-15T15:03:30;19.90;31.30
27823;DHT22;29019;47.630;8.262;2023-03-15T15:07:32;19.90;31.20
27823;DHT22;29019;47.630;8.262;2023-03-15T15:11:32;19.90;31.10
27823;DHT22;29019;47.630;8.262;2023-03-15T15:15:33;19.90;31.10
27823;DHT22;29019;47.630;8.262;2023-03-15T15:19:34;19.90;31.00
27823;DHT22;29019;47.630;8.262;2023-03-15T15:23:34;19.80;30.90
27823;DHT22;29019;47.630;8.262;2023-03-15T15:27:35;19.80;31.00
27823;DHT22;29019;47.630;8.262;2023-03-15T15:31:36;19.80;30.90
27823;DHT22;29019;47.630;8.262;2023-03-15T15:35:36;19.80;31.00
27823;DHT22;29019;47.630;8.262;2023-03-15T15:39:37;19.80;31.00
27823;DHT22;29019;47.630;8.262;2023-03-15T15:43:37;19.80;31.10
27823;DHT22;29019;47.630;8.262;2023-03-15T15:47:38;19.80;31.00
27823;DHT22;29019;47.630;8.262;2023-03-15T15:51:42;19.80;31.00
27823;DHT22;29019;47.630;8.262;2023-03-15T15:55:45;19.80;30.90
27823;DHT22;29019;47.630;8.262;2023-03-15T15:59:45;19.90;30.80
27823;DHT22;29019;47.630;8.262;2023-03-15T16:03:45;19.80;30.90
27823;DHT22;29019;47.630;8.262;2023-03-15T16:07:46;19.80;30.90
27823;DHT22;29019;47.630;8.262;2023-03-15T16:11:47;19.90;31.10
27823;DHT22;29019;47.630;8.262;2023-03-15T16:15:47;19.90;30.90
27823;DHT22;29019;47.630;8.262;2023-03-15T16:19:48;20.00;30.90
27823;DHT22;29019;47.630;8.262;2023-03-15T16:23:51;20.10;30.90
27823;DHT22;29019;47.630;8.262;2023-03-15T16:27:54;20.20;30.70
27823;DHT22;29019;47.630;8.262;2023-03-15T16:31:55;20.20;30.70
27823;DHT22;29019;47.630;8.262;2023-03-15T16:35:57;20.30;30.60
27823;DHT22;29019;47.630;8.262;2023-03-15T16:39:58;20.40;30.60
27823;DHT22;29019;47.630;8.262;2023-03-15T16:43:59;20.40;30.50
27823;DHT22;29019;47.630;8.262;2023-03-15T16:48:00;20.50;30.50
27823;DHT22;29019;47.630;8.262;2023-03-15T16:52:01;20.50;30.50
27823;DHT22;29019;47.630;8.262;2023-03-15T16:56:03;20.50;30.50
27823;DHT22;29019;47.630;8.262;2023-03-15T17:00:04;20.60;30.50
27823;DHT22;29019;47.630;8.262;2023-03-15T17:04:10;20.60;30.50
27823;DHT22;29019;47.630;8.262;2023-03-15T17:08:12;20.60;30.50
27823;DHT22;29019;47.630;8.262;2023-03-15T17:12:20;20.60;30.50
27823;DHT22;29019;47.630;8.262;2023-03-15T17:16:21;20.60;30.50
27823;DHT22;29019;47.630;8.262;2023-03-15T17:20:22;20.60;30.50
27823;DHT22;29019;47.630;8.262;2023-03-15T17:24:26;20.60;30.50
27823;DHT22;29019;47.630;8.262;2023-03-15T17:28:26;20.60;30.50
27823;DHT22;29019;47.630;8.262;2023-03-15T17:32:27;20.60;30.50
27823;DHT22;29019;47.630;8.262;2023-03-15T17:36:29;20.60;30.50
27823;DHT22;29019;47.630;8.262;2023-03-15T17:40:32;20.60;30.60
27823;DHT22;29019;47.630;8.262;2023-03-15T17:44:33;20.60;30.60
27823;DHT22;29019;47.630;8.262;2023-03-15T17:48:34;20.60;30.60
27823;DHT22;29019;47.630;8.262;2023-03-15T17:52:34;20.60;30.60
27823;DHT22;29019;47.630;8.262;2023-03-15T17:56:35;20.60;30.60
27823;DHT22;29019;47.630;8.262;2023-03-15T18:00:35;20.60;30.60
27823;DHT22;29019;47.630;8.262;2023-03-15T18:04:35;20.60;30.60
27823;DHT22;29019;47.630;8.262;2023-03-15T18:08:36;20.60;30.60
27823;DHT22;29019;47.630;8.262;2023-03-15T18:12:36;20.60;30.70
27823;DHT22;29019;47.630;8.262;2023-03-15T18:16:37;20.60;30.70
27823;DHT22;29019;47.630;8.262;2023-03-15T18:20:37;20.50;30.70
27823;DHT22;29019;47.630;8.262;2023-03-15T18:24:38;20.50;30.70
27823;DHT22;29019;47.630;8.262;2023-03-15T18:28:38;20.50;30.70
27823;DHT22;29019;47.630;8.262;2023-03-15T18:32:39;20.50;30.70
27823;DHT22;29019;47.630;8.262;2023-03-15T18:36:39;20.50;30.70
27823;DHT22;29019;47.630;8.262;2023-03-15T18:40:40;20.50;30.70
27823;DHT22;29019;47.630;8.262;2023-03-15T18:44:41;20.50;30.80
27823;DHT22;29019;47.630;8.262;2023-03-15T18:48:43;20.50;30.70
27823;DHT22;29019;47.630;8.262;2023-03-15T18:52:44;20.50;30.80
27823;DHT22;29019;47.630;8.262;2023-03-15T18:56:45;20.50;30.80
27823;DHT22;29019;47.630;8.262;2023-03-15T19:00:45;20.60;30.90
27823;DHT22;29019;47.630;8.262;2023-03-15T19:04:48;20.50;30.80
27823;DHT22;29019;47.630;8.262;2023-03-15T19:08:48;20.50;30.80
27823;DHT22;29019;47.630;8.262;2023-03-15T19:12:52;20.50;30.80
27823;DHT22;29019;47.630;8.262;2023-03-15T19:16:53;20.50;30.80
27823;DHT22;29019;47.630;8.262;2023-03-15T19:20:54;20.50;30.80
27823;DHT22;29019;47.630;8.262;2023-03-15T19:24:54;20.50;30.80
27823;DHT22;29019;47.630;8.262;2023-03-15T19:28:55;20.50;30.80
27823;DHT22;29019;47.630;8.262;2023-03-15T19:32:55;20.50;30.90
27823;DHT22;29019;47.630;8.262;2023-03-15T19:36:56;20.50;30.80
27823;DHT22;29019;47.630;8.262;2023-03-15T19:41:00;20.50;30.80
27823;DHT22;29019;47.630;8.262;2023-03-15T19:45:02;20.50;30.90
27823;DHT22;29019;47.630;8.262;2023-03-15T19:49:02;20.50;30.90
27823;DHT22;29019;47.630;8.262;2023-03-15T19:53:03;20.50;30.80
27823;DHT22;29019;47.630;8.262;2023-03-15T19:57:04;20.50;30.80
27823;DHT22;29019;47.630;8.262;2023-03-15T20:01:04;20.50;30.80
27823;DHT22;29019;47.630;8.262;2023-03-15T20:05:05;20.50;30.80
27823;DHT22;29019;47.630;8.262;2023-03-15T20:09:07;20.50;30.80
27823;DHT22;29019;47.630;8.262;2023-03-15T20:13:08;20.50;30.80
27823;DHT22;29019;47.630;8.262;2023-03-15T20:17:09;20.50;30.90
27823;DHT22;29019;47.630;8.262;2023-03-15T20:21:09;20.50;30.80
27823;DHT22;29019;47.630;8.262;2023-03-15T20:25:14;20.50;30.80
27823;DHT22;29019;47.630;8.262;2023-03-15T20:29:14;20.50;30.90
27823;DHT22;29019;47.630;8.262;2023-03-15T20:33:15;20.40;30.80
27823;DHT22;29019;47.630;8.262;2023-03-15T20:37:15;20.50;30.80
27823;DHT22;29019;47.630;8.262;2023-03-15T20:41:16;20.50;30.80
27823;DHT22;29019;47.630;8.262;2023-03-15T20:45:18;20.50;30.80
27823;DHT22;29019;47.630;8.262;2023-03-15T20:49:18;20.40;30.70
27823;DHT22;29019;47.630;8.262;2023-03-15T20:53:19;20.50;30.80
27823;DHT22;29019;47.630;8.262;2023-03-15T20:57:19;20.40;30.80
27823;DHT22;29019;47.630;8.262;2023-03-15T21:01:20;20.40;30.80
27823;DHT22;29019;47.630;8.262;2023-03-15T21:05:20;20.40;30.90
27823;DHT22;29019;47.630;8.262;2023-03-15T21:09:21;20.40;30.80
27823;DHT22;29019;47.630;8.262;2023-03-15T21:13:22;20.40;30.70
27823;DHT22;29019;47.630;8.262;2023-03-15T21:17:23;20.40;30.80
27823;DHT22;29019;47.630;8.262;2023-03-15T21:21:23;20.40;30.80
27823;DHT22;29019;47.630;8.262;2023-03-15T21:25:23;20.40;30.80
27823;DHT22;29019;47.630;8.262;2023-03-15T21:29:24;20.40;30.80
27823;DHT22;29019;47.630;8.262;2023-03-15T21:33:25;20.40;30.70
27823;DHT22;29019;47.630;8.262;2023-03-15T21:37:26;20.40;30.70
27823;DHT22;29019;47.630;8.262;2023-03-15T21:41:26;20.40;30.70
27823;DHT22;29019;47.630;8.262;2023-03-15T21:45:27;20.40;30.60
27823;DHT22;29019;47.630;8.262;2023-03-15T21:49:27;20.50;31.10
27823;DHT22;29019;47.630;8.262;2023-03-15T21:53:28;20.40;30.50
27823;DHT22;29019;47.630;8.262;2023-03-15T21:57:29;20.40;30.60
27823;DHT22;29019;47.630;8.262;2023-03-15T22:01:32;20.40;30.50
27823;DHT22;29019;47.630;8.262;2023-03-15T22:05:33;20.40;30.50
27823;DHT22;29019;47.630;8.262;2023-03-15T22:09:34;20.40;30.60
27823;DHT22;29019;47.630;8.262;2023-03-15T22:13:36;20.30;30.50
27823;DHT22;29019;47.630;8.262;2023-03-15T22:17:37;20.30;30.70
27823;DHT22;29019;47.630;8.262;2023-03-15T22:21:37;20.20;30.70
27823;DHT22;29019;47.630;8.262;2023-03-15T22:25:37;20.20;30.70
27823;DHT22;29019;47.630;8.262;2023-03-15T22:29:39;20.20;30.80
27823;DHT22;29019;47.630;8.262;2023-03-15T22:33:39;20.20;30.80
27823;DHT22;29019;47.630;8.262;2023-03-15T22:37:40;20.10;30.90
27823;DHT22;29019;47.630;8.262;2023-03-15T22:41:40;20.10;30.90
27823;DHT22;29019;47.630;8.262;2023-03-15T22:45:41;20.10;31.00
27823;DHT22;29019;47.630;8.262;2023-03-15T22:49:41;20.00;31.50
27823;DHT22;29019;47.630;8.262;2023-03-15T22:53:42;20.00;31.00
27823;DHT22;29019;47.630;8.262;2023-03-15T22:57:42;20.00;31.00
27823;DHT22;29019;47.630;8.262;2023-03-15T23:01:43;20.00;31.10
27823;DHT22;29019;47.630;8.262;2023-03-15T23:05:43;19.90;31.00
27823;DHT22;29019;47.630;8.262;2023-03-15T23:09:44;19.90;31.00
27823;DHT22;29019;47.630;8.262;2023-03-15T23:13:44;19.90;31.00
27823;DHT22;29019;47.630;8.262;2023-03-15T23:17:47;19.90;31.00
27823;DHT22;29019;47.630;8.262;2023-03-15T23:21:48;19.90;31.00
27823;DHT22;29019;47.630;8.262;2023-03-15T23:25:49;19.80;31.00
27823;DHT22;29019;47.630;8.262;2023-03-15T23:29:49;19.80;31.00
27823;DHT22;29019;47.630;8.262;2023-03-15T23:33:50;19.80;31.00
27823;DHT22;29019;47.630;8.262;2023-03-15T23:37:50;19.80;31.00
27823;DHT22;29019;47.630;8.262;2023-03-15T23:41:52;19.70;31.00
27823;DHT22;29019;47.630;8.262;2023-03-15T23:45:56;19.70;31.00
27823;DHT22;29019;47.630;8.262;2023-03-15T23:49:56;19.70;31.00
27823;DHT22;29019;47.630;8.262;2023-03-15T23:53:57;19.70;31.00
27823;DHT22;29019;47.630;8.262;2023-03-15T23:57:58;19.70;31.00
